createdAt,value
2023-02-01T00:00:02.967Z,84.06
2023-02-01T00:02:32.721Z,85.51
2023-02-01T00:05:00.238Z,86.28
2023-02-01T00:07:27.475Z,86.31
2023-02-01T00:09:54.850Z,84.54
2023-02-01T00:12:22.176Z,84.54
2023-02-01T00:14:49.473Z,83.86
2023-02-01T00:17:16.774Z,83.47
2023-02-01T00:19:44.052Z,83.42
2023-02-01T00:22:11.405Z,83.01
2023-02-01T00:24:38.752Z,83.40
2023-02-01T00:27:06.062Z,83.37
2023-02-01T00:29:33.384Z,83.40
2023-02-01T00:32:00.867Z,83.40
2023-02-01T00:34:28.930Z,83.95
2023-02-01T00:36:56.258Z,83.51
2023-02-01T00:39:23.568Z,83.29
2023-02-01T00:41:50.889Z,83.81
2023-02-01T00:44:18.117Z,83.38
2023-02-01T00:46:45.559Z,83.94
2023-02-01T00:49:12.883Z,83.77
2023-02-01T00:51:40.150Z,83.29
2023-02-01T00:54:07.433Z,83.26
2023-02-01T00:56:34.715Z,83.71
2023-02-01T00:59:01.981Z,83.33
2023-02-01T01:01:29.576Z,83.30
2023-02-01T01:04:00.152Z,82.74
2023-02-01T01:06:31.889Z,83.54
2023-02-01T01:09:01.755Z,83.84
2023-02-01T01:11:31.971Z,83.97
2023-02-01T01:14:00.742Z,83.71
2023-02-01T01:16:29.810Z,83.66
2023-02-01T01:18:58.138Z,84.25
2023-02-01T01:21:26.218Z,83.19
2023-02-01T01:23:54.131Z,82.23
2023-02-01T01:26:24.520Z,82.91
2023-02-01T01:28:52.943Z,82.50
2023-02-01T01:31:21.656Z,81.84
2023-02-01T01:33:54.067Z,82.69
2023-02-01T01:36:21.794Z,81.98
2023-02-01T01:38:49.482Z,81.91
2023-02-01T01:41:22.886Z,82.27
2023-02-01T01:43:58.163Z,82.12
2023-02-01T01:46:32.037Z,81.39
2023-02-01T01:49:05.549Z,81.06
2023-02-01T01:51:41.641Z,81.71
2023-02-01T01:54:22.524Z,81.12
2023-02-01T01:56:54.661Z,81.21
2023-02-01T01:59:25.195Z,80.45
2023-02-01T02:01:53.407Z,80.97
2023-02-01T02:04:20.986Z,81.09
2023-02-01T02:06:58.463Z,82.10
2023-02-01T02:09:25.821Z,82.08
2023-02-01T02:11:53.212Z,81.94
2023-02-01T02:14:24.117Z,82.27
2023-02-01T02:17:22.845Z,81.59
2023-02-01T02:20:11.727Z,81.45
2023-02-01T02:22:40.063Z,82.96
2023-02-01T02:25:40.003Z,82.96
2023-02-01T02:28:19.661Z,83.17
2023-02-01T02:31:08.447Z,83.14
2023-02-01T02:34:12.524Z,81.99
2023-02-01T02:37:11.907Z,81.13
2023-02-01T02:40:08.149Z,81.87
2023-02-01T02:43:15.285Z,81.53
2023-02-01T02:46:14.902Z,80.49
2023-02-01T02:49:06.378Z,81.13
2023-02-01T02:51:59.875Z,81.22
2023-02-01T02:54:51.845Z,80.11
2023-02-01T02:57:45.167Z,80.47
2023-02-01T03:00:36.330Z,80.61
2023-02-01T03:03:26.659Z,80.77
2023-02-01T03:05:54.295Z,80.52
2023-02-01T03:08:26.712Z,80.69
2023-02-01T03:11:15.217Z,81.13
2023-02-01T03:13:52.888Z,80.87
2023-02-01T03:16:36.659Z,80.90
2023-02-01T03:19:11.166Z,81.99
2023-02-01T03:21:44.528Z,81.51
2023-02-01T03:24:18.715Z,81.21
2023-02-01T03:26:55.639Z,81.97
2023-02-01T03:29:30.585Z,81.81
2023-02-01T03:31:58.101Z,81.31
2023-02-01T03:34:25.699Z,82.05
2023-02-01T03:37:03.639Z,82.19
2023-02-01T03:39:56.192Z,81.92
2023-02-01T03:42:39.871Z,81.74
2023-02-01T03:45:21.994Z,81.73
2023-02-01T03:47:54.539Z,82.47
2023-02-01T03:50:25.049Z,81.82
2023-02-01T03:53:10.351Z,81.82
2023-02-01T03:55:38.213Z,81.66
2023-02-01T03:58:12.160Z,81.27
2023-02-01T04:00:40.340Z,82.46
2023-02-01T04:03:13.149Z,82.32
2023-02-01T04:05:40.560Z,82.24
2023-02-01T04:08:09.415Z,82.01
2023-02-01T04:10:36.727Z,82.61
2023-02-01T04:13:04.179Z,83.20
2023-02-01T04:15:31.459Z,82.05
2023-02-01T04:17:58.782Z,81.84
2023-02-01T04:20:26.423Z,80.94
2023-02-01T04:22:53.820Z,82.09
2023-02-01T04:25:21.640Z,82.57
2023-02-01T04:27:49.175Z,82.78
2023-02-01T04:30:16.875Z,82.11
2023-02-01T04:32:44.294Z,81.76
2023-02-01T04:35:12.784Z,81.75
2023-02-01T04:37:40.107Z,81.49
2023-02-01T04:40:08.098Z,81.68
2023-02-01T04:42:35.376Z,81.76
2023-02-01T04:45:03.082Z,82.28
2023-02-01T04:47:30.854Z,81.65
2023-02-01T04:49:58.275Z,81.68
2023-02-01T04:52:25.551Z,82.67
2023-02-01T04:54:55.411Z,81.55
2023-02-01T04:57:23.167Z,80.74
2023-02-01T04:59:50.655Z,80.05
2023-02-01T05:02:18.185Z,80.53
2023-02-01T05:04:45.819Z,80.54
2023-02-01T05:07:13.416Z,79.98
2023-02-01T05:09:40.770Z,80.37
2023-02-01T05:12:29.180Z,80.13
2023-02-01T05:14:56.502Z,81.07
2023-02-01T05:17:23.924Z,80.97
2023-02-01T05:19:51.246Z,81.66
2023-02-01T05:22:18.820Z,81.99
2023-02-01T05:24:46.197Z,82.36
2023-02-01T05:27:13.592Z,82.60
2023-02-01T05:29:40.931Z,81.24
2023-02-01T05:32:21.760Z,81.41
2023-02-01T05:34:50.468Z,81.88
2023-02-01T05:37:17.855Z,81.32
2023-02-01T05:39:45.180Z,82.19
2023-02-01T05:42:12.573Z,82.67
2023-02-01T05:44:39.995Z,82.09
2023-02-01T05:47:07.502Z,81.84
2023-02-01T05:49:34.858Z,82.53
2023-02-01T05:52:02.581Z,81.64
2023-02-01T05:54:30.003Z,81.52
2023-02-01T05:56:57.325Z,80.70
2023-02-01T05:59:24.871Z,80.92
2023-02-01T06:01:52.286Z,80.96
2023-02-01T06:04:19.603Z,81.13
2023-02-01T06:06:46.932Z,81.43
2023-02-01T06:09:14.186Z,81.03
2023-02-01T06:11:42.368Z,80.96
2023-02-01T06:14:09.665Z,80.57
2023-02-01T06:16:36.930Z,79.60
2023-02-01T06:19:04.342Z,79.13
2023-02-01T06:21:31.663Z,78.73
2023-02-01T06:23:59.298Z,78.02
2023-02-01T06:26:26.937Z,78.01
2023-02-01T06:28:54.228Z,77.72
2023-02-01T06:31:22.214Z,79.12
2023-02-01T06:33:49.841Z,78.53
2023-02-01T06:36:17.300Z,78.48
2023-02-01T06:38:44.663Z,79.14
2023-02-01T06:41:12.142Z,78.11
2023-02-01T06:43:39.615Z,78.65
2023-02-01T06:46:13.047Z,78.51
2023-02-01T06:48:40.403Z,79.21
2023-02-01T06:51:19.877Z,78.79
2023-02-01T06:53:47.243Z,79.77
2023-02-01T06:56:14.581Z,79.30
2023-02-01T06:58:41.932Z,79.05
2023-02-01T07:01:10.983Z,79.80
2023-02-01T07:04:11.186Z,78.42
2023-02-01T07:06:39.364Z,77.78
2023-02-01T07:09:07.296Z,78.24
2023-02-01T07:11:35.214Z,77.59
2023-02-01T07:14:02.577Z,77.18
2023-02-01T07:16:30.141Z,77.15
2023-02-01T07:18:57.551Z,76.08
2023-02-01T07:21:24.881Z,76.48
2023-02-01T07:23:52.268Z,76.27
2023-02-01T07:26:19.687Z,76.19
2023-02-01T07:28:47.888Z,75.43
2023-02-01T07:31:19.910Z,74.70
2023-02-01T07:33:47.993Z,74.50
2023-02-01T07:36:17.852Z,73.29
2023-02-01T07:38:45.773Z,72.15
2023-02-01T07:41:13.103Z,72.71
2023-02-01T07:43:40.896Z,73.41
2023-02-01T07:46:08.586Z,72.22
2023-02-01T07:48:36.000Z,71.82
2023-02-01T07:51:10.256Z,70.78
2023-02-01T07:53:38.047Z,70.31
2023-02-01T07:56:12.420Z,70.08
2023-02-01T07:58:39.782Z,69.05
2023-02-01T08:01:22.278Z,68.48
2023-02-01T08:03:52.007Z,69.05
2023-02-01T08:06:20.693Z,68.84
2023-02-01T08:08:49.537Z,69.33
2023-02-01T08:11:18.502Z,69.69
2023-02-01T08:13:46.369Z,69.97
2023-02-01T08:16:15.497Z,69.55
2023-02-01T08:18:44.015Z,69.05
2023-02-01T08:21:19.522Z,69.17
2023-02-01T08:23:47.197Z,69.22
2023-02-01T08:26:26.685Z,69.73
2023-02-01T08:28:59.431Z,69.74
2023-02-01T08:31:29.027Z,70.61
2023-02-01T08:33:59.227Z,71.60
2023-02-01T08:36:28.229Z,71.68
2023-02-01T08:38:55.936Z,72.87
2023-02-01T08:41:28.471Z,72.56
2023-02-01T08:43:56.772Z,73.15
2023-02-01T08:46:24.811Z,72.65
2023-02-01T08:48:52.850Z,72.02
2023-02-01T08:51:22.572Z,69.75
2023-02-01T08:53:51.014Z,65.72
2023-02-01T08:56:20.203Z,63.83
2023-02-01T08:58:47.579Z,62.96
2023-02-01T09:01:17.957Z,62.36
2023-02-01T09:03:49.487Z,61.47
2023-02-01T09:06:17.230Z,62.61
2023-02-01T09:08:44.870Z,64.11
2023-02-01T09:11:17.658Z,64.75
2023-02-01T09:13:45.573Z,65.95
2023-02-01T09:16:13.771Z,65.88
2023-02-01T09:18:50.578Z,67.11
2023-02-01T09:21:23.944Z,67.76
2023-02-01T09:23:52.642Z,68.13
2023-02-01T09:26:26.590Z,68.20
2023-02-01T09:28:59.331Z,69.77
2023-02-01T09:31:26.755Z,69.36
2023-02-01T09:33:54.213Z,69.88
2023-02-01T09:36:21.770Z,70.06
2023-02-01T09:38:53.129Z,70.27
2023-02-01T09:41:39.436Z,70.60
2023-02-01T09:44:44.128Z,71.53
2023-02-01T09:47:14.712Z,72.09
2023-02-01T09:49:52.369Z,72.88
2023-02-01T09:52:29.317Z,72.42
2023-02-01T09:55:03.795Z,72.41
2023-02-01T09:57:46.318Z,72.51
2023-02-01T10:00:23.703Z,72.52
2023-02-01T10:02:51.714Z,72.47
2023-02-01T10:05:42.994Z,72.22
2023-02-01T10:08:21.275Z,72.64
2023-02-01T10:10:50.870Z,72.75
2023-02-01T10:13:45.030Z,73.25
2023-02-01T10:16:31.464Z,72.62
2023-02-01T10:19:05.841Z,72.65
2023-02-01T10:21:48.386Z,73.28
2023-02-01T10:24:37.199Z,72.71
2023-02-01T10:27:26.001Z,72.47
2023-02-01T10:29:59.441Z,72.51
2023-02-01T10:32:35.872Z,72.32
2023-02-01T10:35:14.251Z,71.67
2023-02-01T10:37:44.054Z,71.67
2023-02-01T10:40:23.210Z,72.85
2023-02-01T10:42:53.605Z,72.14
2023-02-01T10:45:24.090Z,72.19
2023-02-01T10:47:53.568Z,71.89
2023-02-01T10:50:37.231Z,71.12
2023-02-01T10:53:07.652Z,70.68
2023-02-01T10:55:39.352Z,71.03
2023-02-01T10:58:45.044Z,71.87
2023-02-01T11:01:20.684Z,71.52
2023-02-01T11:04:05.734Z,72.00
2023-02-01T11:06:45.169Z,72.48
2023-02-01T11:09:21.621Z,72.06
2023-02-01T11:11:48.975Z,71.16
2023-02-01T11:14:19.611Z,70.40
2023-02-01T11:17:01.531Z,71.17
2023-02-01T11:19:30.046Z,71.23
2023-02-01T11:22:00.389Z,71.82
2023-02-01T11:24:36.618Z,71.04
2023-02-01T11:27:07.197Z,70.87
2023-02-01T11:29:42.237Z,70.75
2023-02-01T11:32:13.216Z,70.04
2023-02-01T11:34:49.919Z,70.31
2023-02-01T11:37:20.067Z,69.38
2023-02-01T11:39:59.346Z,68.87
2023-02-01T11:42:29.214Z,69.69
2023-02-01T11:45:20.167Z,69.61
2023-02-01T11:47:52.638Z,70.15
2023-02-01T11:50:43.557Z,70.08
2023-02-01T11:53:21.078Z,69.91
2023-02-01T11:56:00.369Z,70.69
2023-02-01T11:59:04.925Z,70.35
2023-02-01T12:01:50.400Z,70.93
2023-02-01T12:05:07.360Z,71.54
2023-02-01T12:07:52.292Z,71.96
2023-02-01T12:10:38.457Z,71.96
2023-02-01T12:13:24.494Z,71.31
2023-02-01T12:16:13.188Z,71.98
2023-02-01T12:19:23.299Z,72.42
2023-02-01T12:22:11.736Z,72.31
2023-02-01T12:25:12.644Z,72.32
2023-02-01T12:28:02.036Z,71.62
2023-02-01T12:30:29.325Z,71.33
2023-02-01T12:33:25.313Z,72.22
2023-02-01T12:36:02.089Z,72.33
2023-02-01T12:38:41.245Z,72.94
2023-02-01T12:41:11.403Z,73.14
2023-02-01T12:43:41.469Z,72.94
2023-02-01T12:46:23.447Z,72.35
2023-02-01T12:48:59.515Z,72.41
2023-02-01T12:51:34.005Z,70.92
2023-02-01T12:54:10.616Z,71.22
2023-02-01T12:56:56.748Z,71.63
2023-02-01T12:59:35.844Z,71.71
2023-02-01T13:02:34.220Z,71.07
2023-02-01T13:05:07.629Z,71.24
2023-02-01T13:08:08.826Z,71.97
2023-02-01T13:10:44.713Z,72.52
2023-02-01T13:13:18.367Z,72.46
2023-02-01T13:15:50.664Z,72.13
2023-02-01T13:18:21.659Z,72.50
2023-02-01T13:21:17.118Z,71.37
2023-02-01T13:23:47.933Z,71.88
2023-02-01T13:26:15.833Z,72.47
2023-02-01T13:28:48.487Z,72.52
2023-02-01T13:31:40.609Z,72.04
2023-02-01T13:34:45.720Z,71.65
2023-02-01T13:37:27.064Z,72.05
2023-02-01T13:40:32.003Z,72.16
2023-02-01T13:43:09.312Z,72.02
2023-02-01T13:45:43.545Z,72.35
2023-02-01T13:48:21.839Z,72.29
2023-02-01T13:50:54.444Z,72.33
2023-02-01T13:53:34.916Z,72.63
2023-02-01T13:56:08.113Z,71.20
2023-02-01T13:58:41.786Z,71.74
2023-02-01T14:01:22.717Z,71.95
2023-02-01T14:03:58.384Z,72.22
2023-02-01T14:06:28.846Z,72.07
2023-02-01T14:09:14.281Z,72.14
2023-02-01T14:11:48.191Z,72.52
2023-02-01T14:14:15.534Z,72.09
2023-02-01T14:16:44.128Z,72.18
2023-02-01T14:19:34.420Z,72.54
2023-02-01T14:22:21.688Z,72.84
2023-02-01T14:24:55.192Z,72.67
2023-02-01T14:27:29.283Z,72.88
2023-02-01T14:30:03.806Z,72.61
2023-02-01T14:32:42.699Z,71.97
2023-02-01T14:35:22.135Z,72.47
2023-02-01T14:37:53.898Z,72.88
2023-02-01T14:40:26.206Z,73.36
2023-02-01T14:42:54.886Z,73.40
2023-02-01T14:45:26.103Z,73.59
2023-02-01T14:48:16.514Z,73.86
2023-02-01T14:50:49.129Z,74.16
2023-02-01T14:53:25.729Z,73.94
2023-02-01T14:56:07.359Z,73.39
2023-02-01T14:58:46.374Z,73.61
2023-02-01T15:01:25.020Z,73.05
2023-02-01T15:04:01.555Z,73.41
2023-02-01T15:06:32.018Z,74.42
2023-02-01T15:09:05.351Z,74.16
2023-02-01T15:11:32.953Z,74.20
2023-02-01T15:14:01.625Z,74.78
2023-02-01T15:16:29.002Z,75.21
2023-02-01T15:19:11.050Z,75.31
2023-02-01T15:21:47.781Z,76.00
2023-02-01T15:24:21.573Z,76.12
2023-02-01T15:26:49.691Z,76.26
2023-02-01T15:29:18.391Z,76.82
2023-02-01T15:31:51.795Z,76.95
2023-02-01T15:34:20.807Z,77.87
2023-02-01T15:37:01.899Z,77.66
2023-02-01T15:39:32.422Z,77.98
2023-02-01T15:42:10.016Z,78.12
2023-02-01T15:44:47.261Z,78.71
2023-02-01T15:47:21.500Z,78.98
2023-02-01T15:49:54.862Z,79.08
2023-02-01T15:52:27.003Z,79.37
2023-02-01T15:55:33.726Z,79.30
2023-02-01T15:58:01.497Z,79.50
2023-02-01T16:00:34.682Z,79.44
2023-02-01T16:03:05.893Z,80.10
2023-02-01T16:05:40.907Z,80.14
2023-02-01T16:08:16.123Z,80.30
2023-02-01T16:10:46.737Z,80.77
2023-02-01T16:13:15.795Z,81.19
2023-02-01T16:15:43.991Z,81.33
2023-02-01T16:18:13.335Z,81.53
2023-02-01T16:20:42.502Z,81.83
2023-02-01T16:23:11.602Z,81.94
2023-02-01T16:25:40.229Z,82.03
2023-02-01T16:28:07.984Z,81.99
2023-02-01T16:30:35.713Z,82.45
2023-02-01T16:33:03.673Z,82.31
2023-02-01T16:35:36.752Z,82.30
2023-02-01T16:38:09.838Z,82.72
2023-02-01T16:40:37.923Z,83.00
2023-02-01T16:43:23.020Z,83.39
2023-02-01T16:45:52.660Z,83.83
2023-02-01T16:48:49.627Z,83.76
2023-02-01T16:51:17.858Z,83.88
2023-02-01T16:53:54.166Z,83.71
2023-02-01T16:56:25.931Z,84.06
2023-02-01T16:58:55.233Z,83.88
2023-02-01T17:01:23.390Z,84.42
2023-02-01T17:03:51.141Z,84.68
2023-02-01T17:06:21.715Z,85.29
2023-02-01T17:08:52.536Z,85.54
2023-02-01T17:11:19.892Z,85.40
2023-02-01T17:13:47.899Z,85.43
2023-02-01T17:16:32.221Z,86.05
2023-02-01T17:19:03.357Z,86.07
2023-02-01T17:21:38.099Z,86.92
2023-02-01T17:24:05.755Z,86.91
2023-02-01T17:26:33.166Z,87.26
2023-02-01T17:29:00.580Z,87.38
2023-02-01T17:31:28.773Z,87.23
2023-02-01T17:33:56.814Z,86.95
2023-02-01T17:36:24.155Z,87.23
2023-02-01T17:39:04.703Z,87.63
2023-02-01T17:41:33.929Z,87.82
2023-02-01T17:44:01.571Z,88.23
2023-02-01T17:46:30.673Z,89.12
2023-02-01T17:48:59.163Z,88.90
2023-02-01T17:51:28.370Z,88.50
2023-02-01T17:53:55.897Z,88.62
2023-02-01T17:56:24.927Z,88.89
2023-02-01T17:58:52.464Z,89.21
2023-02-01T18:01:22.459Z,89.48
2023-02-01T18:03:50.991Z,89.54
2023-02-01T18:06:23.143Z,89.60
2023-02-01T18:08:51.267Z,89.32
2023-02-01T18:11:21.370Z,90.06
2023-02-01T18:13:50.267Z,90.05
2023-02-01T18:16:22.372Z,89.75
2023-02-01T18:18:50.677Z,89.57
2023-02-01T18:21:21.204Z,89.54
2023-02-01T18:23:49.694Z,89.64
2023-02-01T18:26:18.625Z,90.56
2023-02-01T18:28:46.136Z,89.89
2023-02-01T18:31:34.842Z,90.05
2023-02-01T18:34:03.214Z,90.70
2023-02-01T18:36:30.631Z,89.88
2023-02-01T18:38:58.138Z,89.67
2023-02-01T18:41:26.062Z,89.44
2023-02-01T18:43:53.860Z,89.74
2023-02-01T18:46:24.106Z,88.98
2023-02-01T18:48:51.547Z,88.98
2023-02-01T18:51:20.330Z,88.48
2023-02-01T18:53:48.600Z,89.29
2023-02-01T18:56:20.839Z,90.01
2023-02-01T18:58:48.291Z,90.41
2023-02-01T19:01:21.670Z,90.42
2023-02-01T19:03:55.762Z,89.84
2023-02-01T19:06:30.338Z,89.52
2023-02-01T19:08:57.730Z,89.31
2023-02-01T19:11:25.068Z,89.83
2023-02-01T19:13:52.458Z,90.81
2023-02-01T19:16:19.804Z,92.99
2023-02-01T19:18:52.087Z,93.11
2023-02-01T19:21:19.614Z,93.10
2023-02-01T19:23:47.036Z,91.72
2023-02-01T19:26:17.227Z,92.13
2023-02-01T19:28:47.828Z,92.13
2023-02-01T19:31:16.482Z,91.53
2023-02-01T19:33:43.956Z,91.38
2023-02-01T19:36:11.394Z,92.40
2023-02-01T19:38:40.261Z,92.38
2023-02-01T19:41:07.735Z,92.53
2023-02-01T19:43:36.758Z,91.86
2023-02-01T19:46:04.494Z,90.69
2023-02-01T19:48:31.997Z,90.86
2023-02-01T19:50:59.568Z,90.49
2023-02-01T19:53:28.060Z,90.61
2023-02-01T19:55:57.331Z,90.59
2023-02-01T19:58:25.773Z,90.70
2023-02-01T20:00:57.086Z,89.88
2023-02-01T20:03:24.875Z,89.31
2023-02-01T20:05:53.383Z,89.47
2023-02-01T20:08:21.253Z,90.98
2023-02-01T20:10:49.240Z,91.43
2023-02-01T20:13:17.193Z,89.45
2023-02-01T20:15:44.835Z,89.89
2023-02-01T20:18:12.527Z,90.29
2023-02-01T20:20:41.417Z,91.09
2023-02-01T20:23:09.145Z,91.31
2023-02-01T20:25:38.205Z,91.35
2023-02-01T20:28:05.806Z,90.99
2023-02-01T20:30:33.373Z,90.95
2023-02-01T20:33:00.860Z,90.31
2023-02-01T20:35:29.183Z,89.73
2023-02-01T20:37:58.995Z,90.30
2023-02-01T20:40:26.451Z,89.75
2023-02-01T20:42:54.319Z,90.47
2023-02-01T20:45:21.970Z,90.32
2023-02-01T20:47:52.958Z,90.13
2023-02-01T20:50:20.354Z,90.01
2023-02-01T20:52:47.697Z,90.06
2023-02-01T20:55:15.077Z,90.13
2023-02-01T20:57:42.577Z,90.81
2023-02-01T21:00:10.628Z,90.02
2023-02-01T21:02:38.452Z,90.11
2023-02-01T21:05:06.221Z,91.10
2023-02-01T21:07:33.712Z,91.69
2023-02-01T21:10:01.023Z,91.44
2023-02-01T21:12:28.317Z,91.19
2023-02-01T21:14:55.619Z,91.78
2023-02-01T21:17:23.282Z,91.69
2023-02-01T21:19:50.572Z,91.39
2023-02-01T21:22:17.876Z,91.54
2023-02-01T21:24:45.704Z,90.96
2023-02-01T21:27:13.427Z,90.21
2023-02-01T21:29:40.738Z,90.83
2023-02-01T21:32:09.360Z,91.08
2023-02-01T21:34:36.755Z,90.98
2023-02-01T21:37:04.058Z,90.70
2023-02-01T21:39:31.523Z,90.28
2023-02-01T21:42:13.978Z,90.04
2023-02-01T21:44:42.289Z,89.73
2023-02-01T21:47:14.424Z,89.63
2023-02-01T21:49:41.778Z,90.51
2023-02-01T21:52:09.777Z,91.16
2023-02-01T21:54:38.901Z,90.41
2023-02-01T21:57:12.088Z,89.92
2023-02-01T21:59:40.946Z,89.78
2023-02-01T22:02:16.478Z,91.85
2023-02-01T22:04:44.692Z,91.88
2023-02-01T22:07:12.383Z,90.47
2023-02-01T22:09:39.957Z,91.20
2023-02-01T22:12:12.398Z,94.41
2023-02-01T22:14:40.757Z,95.35
2023-02-01T22:17:08.113Z,94.80
2023-02-01T22:19:35.761Z,93.56
2023-02-01T22:22:03.177Z,93.08
2023-02-01T22:24:30.444Z,92.75
2023-02-01T22:27:13.353Z,92.51
2023-02-01T22:29:43.377Z,92.67
2023-02-01T22:32:13.264Z,91.99
2023-02-01T22:34:40.669Z,92.66
2023-02-01T22:37:07.943Z,92.47
2023-02-01T22:39:35.224Z,92.62
2023-02-01T22:42:03.518Z,93.18
2023-02-01T22:44:30.840Z,92.19
2023-02-01T22:46:58.590Z,91.90
2023-02-01T22:49:25.886Z,92.01
2023-02-01T22:51:53.150Z,91.60
2023-02-01T22:54:21.475Z,91.15
2023-02-01T22:56:49.494Z,91.34
2023-02-01T22:59:17.233Z,91.66
2023-02-01T23:01:44.624Z,91.28
2023-02-01T23:04:14.545Z,91.03
2023-02-01T23:06:42.177Z,90.82
2023-02-01T23:09:18.597Z,92.78
2023-02-01T23:11:46.619Z,94.31
2023-02-01T23:14:14.970Z,93.62
2023-02-01T23:16:44.864Z,93.08
2023-02-01T23:19:12.321Z,92.55
2023-02-01T23:21:39.756Z,93.25
2023-02-01T23:24:08.270Z,94.27
2023-02-01T23:26:35.900Z,93.86
2023-02-01T23:29:03.823Z,94.89
2023-02-01T23:31:34.165Z,93.48
2023-02-01T23:34:02.728Z,92.97
2023-02-01T23:36:31.930Z,93.17
2023-02-01T23:39:00.332Z,92.12
2023-02-01T23:41:30.043Z,93.94
2023-02-01T23:44:01.050Z,93.23
2023-02-01T23:46:37.862Z,93.07
2023-02-01T23:49:07.496Z,93.79
2023-02-01T23:51:35.886Z,92.63
2023-02-01T23:54:03.981Z,92.13
2023-02-01T23:56:34.541Z,91.62
2023-02-01T23:59:04.134Z,92.30
